Time;durP1;ratioP1;P1;durP2;ratioP2;P2;SDS_P1;SDS_P2;PMS_P1;PMS_P2;Temp;Humidity;BMP_temperature;BMP_pressure;BME280_temperature;BME280_humidity;BME280_pressure;Samples;Min_cycle;Max_cycle;Signal;HPM_P1;HPM_P2
2023/12/16 00:02:28;;;;;;;8.80;2.20;;;16.20;82.60;;;;;;4187944;28;20182;-62
2023/12/16 00:05:10;;;;;;;12.00;2.50;;;16.20;82.80;;;;;;4171090;28;20059;-62
2023/12/16 00:07:51;;;;;;;;;;;16.30;82.70;;;;;;4167202;28;20072;-62
2023/12/16 00:10:32;;;;;;;6.00;2.10;;;16.40;82.50;;;;;;4172415;28;19944;-62
2023/12/16 00:13:13;;;;;;;6.78;2.17;;;16.40;82.30;;;;;;4173556;28;20056;-62
2023/12/16 00:15:55;;;;;;;7.40;2.30;;;16.40;82.10;;;;;;4189138;28;20051;-53
2023/12/16 00:18:37;;;;;;;5.05;1.70;;;16.40;82.00;;;;;;4188909;28;20125;-55
2023/12/16 00:21:17;;;;;;;6.45;1.88;;;16.40;82.10;;;;;;4187085;28;20117;-55
2023/12/16 00:23:59;;;;;;;6.10;1.80;;;16.40;81.70;;;;;;4183353;28;20545;-55
2023/12/16 00:26:40;;;;;;;7.05;1.60;;;16.40;81.80;;;;;;4187945;28;20116;-61
2023/12/16 00:29:21;;;;;;;4.43;1.75;;;16.40;81.80;;;;;;4187993;28;20043;-62
2023/12/16 00:32:04;;;;;;;4.38;1.48;;;16.30;81.90;;;;;;4188184;28;20601;-62
2023/12/16 00:34:45;;;;;;;5.05;1.33;;;16.30;82.20;;;;;;4186958;28;20055;-63
2023/12/16 00:37:26;;;;;;;;;;;16.30;82.20;;;;;;4187957;28;20116;-63
2023/12/16 00:40:09;;;;;;;6.70;1.47;;;16.20;84.00;;;;;;4188376;28;20017;-51
2023/12/16 00:42:50;;;;;;;6.57;1.40;;;16.20;82.90;;;;;;4171412;28;20094;-52
2023/12/16 00:45:32;;;;;;;3.65;1.48;;;16.30;82.60;;;;;;4168768;28;20159;-51
2023/12/16 00:48:15;;;;;;;9.70;1.55;;;16.40;82.20;;;;;;4171237;28;20105;-56
2023/12/16 00:50:56;;;;;;;9.55;1.65;;;16.30;82.00;;;;;;4183962;28;20653;-52
2023/12/16 00:53:37;;;;;;;4.68;1.33;;;16.40;81.60;;;;;;4172616;28;20415;-55
2023/12/16 00:56:18;;;;;;;2.90;1.67;;;16.40;81.80;;;;;;4170456;28;21052;-62
2023/12/16 00:59:02;;;;;;;4.32;1.60;;;16.30;81.90;;;;;;4183131;28;20090;-54
2023/12/16 01:01:43;;;;;;;7.40;1.90;;;16.30;81.80;;;;;;4179771;28;20074;-52
2023/12/16 01:04:25;;;;;;;4.32;2.03;;;16.20;82.00;;;;;;4187928;28;20044;-52
2023/12/16 01:07:06;;;;;;;3.33;1.55;;;16.20;82.40;;;;;;4187283;28;20063;-55
2023/12/16 01:09:47;;;;;;;3.15;1.52;;;16.20;82.70;;;;;;4160893;28;20086;-51
2023/12/16 01:12:28;;;;;;;4.13;1.80;;;16.20;82.80;;;;;;4170943;28;20099;-55
2023/12/16 01:15:10;;;;;;;5.75;1.70;;;16.20;82.80;;;;;;4170012;28;20383;-55
2023/12/16 01:17:51;;;;;;;6.18;1.30;;;16.20;82.60;;;;;;4155791;28;20061;-55
2023/12/16 01:20:33;;;;;;;9.95;1.83;;;16.30;82.60;;;;;;4155999;28;20179;-54
2023/12/16 01:23:14;;;;;;;3.88;1.20;;;16.30;82.40;;;;;;4157846;28;20060;-51
2023/12/16 01:25:55;;;;;;;3.72;1.58;;;16.40;82.10;;;;;;4179358;28;20175;-53
2023/12/16 01:28:36;;;;;;;3.88;1.52;;;16.40;81.80;;;;;;4187080;28;20047;-55
2023/12/16 01:31:18;;;;;;;4.88;1.63;;;16.50;81.80;;;;;;4185677;28;20055;-51
2023/12/16 01:33:59;;;;;;;7.70;1.52;;;16.50;81.40;;;;;;4186256;28;20093;-51
2023/12/16 01:36:42;;;;;;;5.25;1.58;;;16.50;81.20;;;;;;4187078;28;20075;-54
2023/12/16 01:39:23;;;;;;;7.97;2.22;;;16.50;81.30;;;;;;4152172;28;20535;-51
2023/12/16 01:42:04;;;;;;;5.32;1.50;;;16.50;81.20;;;;;;4154769;28;20056;-51
2023/12/16 01:44:45;;;;;;;5.57;1.30;;;16.50;81.10;;;;;;4166622;28;20056;-62
2023/12/16 01:47:26;;;;;;;6.35;1.77;;;16.40;81.10;;;;;;4159362;28;20052;-51
2023/12/16 01:50:08;;;;;;;5.03;1.45;;;16.30;81.10;;;;;;4180137;28;20079;-52
2023/12/16 01:52:53;;;;;;;3.72;1.70;;;16.30;81.60;;;;;;4186002;28;20537;-51
2023/12/16 01:55:34;;;;;;;2.85;1.15;;;16.10;81.60;;;;;;4186613;28;20142;-52
2023/12/16 01:58:15;;;;;;;4.03;1.05;;;16.10;82.30;;;;;;4178453;28;20059;-54
2023/12/16 02:00:56;;;;;;;;;;;16.00;82.70;;;;;;4186175;28;20091;-56
2023/12/16 02:03:38;;;;;;;3.90;1.27;;;16.00;83.30;;;;;;4170183;28;19927;-56
2023/12/16 02:06:20;;;;;;;5.88;1.30;;;16.00;83.40;;;;;;4170690;28;20047;-55
2023/12/16 02:09:02;;;;;;;6.80;1.77;;;16.00;83.20;;;;;;4180741;28;20214;-54
2023/12/16 02:11:42;;;;;;;5.70;2.00;;;16.00;83.00;;;;;;4169263;28;20102;-55
2023/12/16 02:14:24;;;;;;;3.40;1.20;;;16.10;83.10;;;;;;4178603;28;20214;-58
2023/12/16 02:17:05;;;;;;;8.13;1.92;;;16.10;82.90;;;;;;4186309;28;20408;-57
2023/12/16 02:19:47;;;;;;;5.65;1.25;;;16.20;82.30;;;;;;4186304;28;20052;-62
2023/12/16 02:22:28;;;;;;;5.10;1.52;;;16.20;81.90;;;;;;4185968;28;20182;-62
2023/12/16 02:25:12;;;;;;;4.68;1.40;;;16.20;82.10;;;;;;4171235;28;20507;-61
2023/12/16 02:27:52;;;;;;;3.58;1.30;;;16.20;82.10;;;;;;4169568;28;20404;-52
2023/12/16 02:30:34;;;;;;;4.32;1.33;;;16.20;82.20;;;;;;4169601;28;20186;-55
2023/12/16 02:33:17;;;;;;;3.85;1.58;;;16.20;82.20;;;;;;4168224;28;20183;-61
2023/12/16 02:36:00;;;;;;;4.65;1.30;;;16.10;83.40;;;;;;4169834;28;20044;-60
2023/12/16 02:38:41;;;;;;;4.35;1.10;;;16.20;82.70;;;;;;4176476;28;20052;-61
2023/12/16 02:41:23;;;;;;;6.23;1.97;;;16.30;82.40;;;;;;4185139;28;20356;-61
2023/12/16 02:44:05;;;;;;;4.07;1.33;;;16.40;81.80;;;;;;4179833;28;20299;-61
2023/12/16 02:46:46;;;;;;;;;;;16.40;81.60;;;;;;4173778;28;20538;-61
2023/12/16 02:49:28;;;;;;;5.38;1.60;;;16.40;81.10;;;;;;4182479;28;19931;-61
2023/12/16 02:52:10;;;;;;;6.40;1.63;;;16.40;81.50;;;;;;4178447;28;20094;-61
2023/12/16 02:54:51;;;;;;;6.95;1.27;;;16.30;81.50;;;;;;4177024;28;20519;-61
2023/12/16 02:57:33;;;;;;;5.28;1.50;;;16.30;81.70;;;;;;4173081;28;20075;-62
2023/12/16 03:00:15;;;;;;;5.00;1.40;;;16.20;81.60;;;;;;4156393;28;20064;-61
2023/12/16 03:02:56;;;;;;;5.68;1.63;;;16.20;81.90;;;;;;4173386;28;20512;-51
2023/12/16 03:05:37;;;;;;;4.93;1.60;;;16.20;82.10;;;;;;4183277;28;20109;-54
2023/12/16 03:08:19;;;;;;;;;;;16.20;82.50;;;;;;4175048;28;20055;-55
2023/12/16 03:11:01;;;;;;;3.83;1.63;;;16.30;82.10;;;;;;4189465;28;20299;-56
2023/12/16 03:13:43;;;;;;;4.03;1.45;;;16.40;81.60;;;;;;4188624;28;20510;-55
2023/12/16 03:16:24;;;;;;;7.30;1.98;;;16.50;81.10;;;;;;4175701;28;20572;-55
2023/12/16 03:19:05;;;;;;;5.55;2.58;;;16.70;81.00;;;;;;4172585;28;20055;-51
2023/12/16 03:21:46;;;;;;;9.50;1.95;;;16.70;80.50;;;;;;4170570;28;20377;-56
2023/12/16 03:24:27;;;;;;;7.10;2.22;;;16.70;80.30;;;;;;4176939;28;20545;-55
2023/12/16 03:27:08;;;;;;;4.97;2.28;;;16.70;80.20;;;;;;4186609;28;20094;-61
2023/12/16 03:29:51;;;;;;;6.65;1.92;;;16.70;80.30;;;;;;4172712;28;20074;-62
2023/12/16 03:32:32;;;;;;;10.05;2.88;;;16.60;80.30;;;;;;4170577;28;20064;-61
2023/12/16 03:35:13;;;;;;;8.35;2.13;;;16.70;80.40;;;;;;4172790;28;20118;-60
2023/12/16 03:37:55;;;;;;;8.32;2.20;;;16.60;80.30;;;;;;4168246;28;20201;-62
2023/12/16 03:40:36;;;;;;;6.32;1.67;;;16.60;80.50;;;;;;4188850;28;20056;-62
2023/12/16 03:43:17;;;;;;;9.98;2.50;;;16.60;80.70;;;;;;4189126;28;20097;-63
2023/12/16 03:46:00;;;;;;;9.70;2.35;;;16.60;80.90;;;;;;4189055;28;20056;-62
2023/12/16 03:48:41;;;;;;;6.18;1.70;;;16.70;80.50;;;;;;4187684;28;20109;-60
2023/12/16 03:51:23;;;;;;;4.50;1.55;;;16.80;80.20;;;;;;4155550;28;20608;-61
2023/12/16 03:54:05;;;;;;;9.25;2.20;;;16.80;80.00;;;;;;4171407;28;20164;-62
2023/12/16 03:56:46;;;;;;;4.97;2.17;;;16.90;79.70;;;;;;4172243;28;20051;-60
2023/12/16 03:59:27;;;;;;;5.60;2.20;;;16.90;79.50;;;;;;4157252;28;20191;-63
2023/12/16 04:02:09;;;;;;;8.23;2.45;;;16.90;79.60;;;;;;4174703;28;20075;-63
2023/12/16 04:04:50;;;;;;;6.55;2.10;;;17.00;79.60;;;;;;4187180;28;20062;-61
2023/12/16 04:07:31;;;;;;;7.53;2.33;;;17.10;79.20;;;;;;4188472;28;20400;-62
2023/12/16 04:10:13;;;;;;;8.38;2.30;;;17.10;78.70;;;;;;4187521;28;20507;-62
2023/12/16 04:12:54;;;;;;;7.13;2.03;;;17.20;78.40;;;;;;4188129;28;20060;-53
2023/12/16 04:15:35;;;;;;;6.10;1.85;;;17.20;78.30;;;;;;4174698;28;20047;-52
2023/12/16 04:18:17;;;;;;;10.05;2.00;;;17.20;78.10;;;;;;4186617;28;20091;-54
2023/12/16 04:20:59;;;;;;;6.82;1.70;;;17.20;78.30;;;;;;4161370;28;20071;-57
2023/12/16 04:23:40;;;;;;;7.32;2.10;;;17.10;78.40;;;;;;4180720;28;20035;-56
2023/12/16 04:26:21;;;;;;;5.13;1.73;;;17.10;78.60;;;;;;4185331;28;20101;-54
2023/12/16 04:29:02;;;;;;;5.22;1.60;;;17.10;78.80;;;;;;4191976;28;20056;-54
2023/12/16 04:31:43;;;;;;;6.55;1.80;;;17.10;78.80;;;;;;4175101;28;20077;-54
2023/12/16 04:34:25;;;;;;;5.82;2.08;;;17.10;78.60;;;;;;4188150;28;20047;-56
2023/12/16 04:37:06;;;;;;;4.75;1.90;;;17.00;78.60;;;;;;4185793;28;20583;-61
2023/12/16 04:39:47;;;;;;;8.75;2.10;;;16.90;79.00;;;;;;4187756;28;20055;-63
2023/12/16 04:42:28;;;;;;;6.70;2.25;;;17.00;79.00;;;;;;4188126;28;20162;-62
2023/12/16 04:45:10;;;;;;;7.15;1.80;;;17.00;78.80;;;;;;4187828;28;20075;-62
2023/12/16 04:47:51;;;;;;;;;;;17.10;78.60;;;;;;4188766;28;20133;-62
2023/12/16 04:50:33;;;;;;;6.13;1.92;;;17.10;78.60;;;;;;4170046;28;19948;-62
2023/12/16 04:53:14;;;;;;;5.72;1.80;;;17.10;78.40;;;;;;4170917;28;20183;-62
2023/12/16 04:55:55;;;;;;;13.98;2.45;;;17.10;78.30;;;;;;4168251;28;20055;-62
2023/12/16 04:58:36;;;;;;;8.50;2.47;;;17.10;78.40;;;;;;4153315;28;20123;-63
2023/12/16 05:01:17;;;;;;;12.20;2.88;;;17.00;78.60;;;;;;4174403;28;20178;-61
2023/12/16 05:03:58;;;;;;;8.18;2.17;;;17.00;79.00;;;;;;4186331;28;20047;-61
2023/12/16 05:06:40;;;;;;;7.28;2.03;;;17.00;79.80;;;;;;4171072;28;20595;-61
2023/12/16 05:09:21;;;;;;;7.63;3.00;;;17.00;78.70;;;;;;4170359;28;20071;-61
2023/12/16 05:12:02;;;;;;;9.60;2.78;;;17.00;78.50;;;;;;4170401;28;20194;-61
2023/12/16 05:14:43;;;;;;;9.20;2.28;;;17.00;78.40;;;;;;4167970;28;20060;-61
2023/12/16 05:17:24;;;;;;;9.15;1.90;;;17.00;78.50;;;;;;4170626;28;20424;-61
2023/12/16 05:20:07;;;;;;;6.43;2.58;;;16.90;78.70;;;;;;4157552;28;20060;-62
2023/12/16 05:22:49;;;;;;;8.73;2.78;;;16.90;79.00;;;;;;4161396;28;20055;-61
2023/12/16 05:25:32;;;;;;;8.73;2.35;;;16.90;79.00;;;;;;4171814;28;20725;-61
2023/12/16 05:28:13;;;;;;;9.07;2.33;;;17.00;78.80;;;;;;4175092;28;20060;-61
2023/12/16 05:30:54;;;;;;;7.20;1.92;;;17.00;78.50;;;;;;4170152;28;20048;-61
2023/12/16 05:33:35;;;;;;;11.75;2.05;;;17.00;78.70;;;;;;4156732;28;20044;-62
2023/12/16 05:36:16;;;;;;;9.45;2.53;;;16.90;78.90;;;;;;4168916;28;20056;-62
2023/12/16 05:38:58;;;;;;;4.15;2.40;;;16.90;78.40;;;;;;4170508;28;20048;-62
2023/12/16 05:41:39;;;;;;;5.75;2.03;;;16.90;78.90;;;;;;4171678;28;20075;-61
2023/12/16 05:44:20;;;;;;;7.85;3.13;;;16.90;78.90;;;;;;4183366;28;20051;-62
2023/12/16 05:47:01;;;;;;;9.93;2.75;;;16.90;79.00;;;;;;4185157;28;20079;-56
2023/12/16 05:49:42;;;;;;;5.50;2.95;;;16.80;78.90;;;;;;4184000;28;20186;-56
2023/12/16 05:52:23;;;;;;;7.90;1.60;;;16.80;78.70;;;;;;4185752;28;20617;-55
2023/12/16 05:55:07;;;;;;;9.43;2.53;;;16.80;79.30;;;;;;4186467;28;20063;-55
2023/12/16 05:57:48;;;;;;;5.88;2.25;;;16.70;79.40;;;;;;4184039;28;20101;-56
2023/12/16 06:00:29;;;;;;;10.88;3.28;;;16.70;79.50;;;;;;4185489;28;20048;-56
2023/12/16 06:03:10;;;;;;;;;;;16.70;79.50;;;;;;4170421;28;20056;-56
2023/12/16 06:05:51;;;;;;;15.23;3.30;;;16.70;79.80;;;;;;4170209;28;19953;-56
2023/12/16 06:08:34;;;;;;;9.55;2.45;;;16.60;79.90;;;;;;4170271;28;20059;-63
2023/12/16 06:11:16;;;;;;;12.60;3.72;;;16.50;79.90;;;;;;4185660;28;20058;-62
2023/12/16 06:13:57;;;;;;;7.63;2.40;;;16.50;80.10;;;;;;4170191;28;20110;-63
2023/12/16 06:16:38;;;;;;;9.35;2.53;;;16.40;80.30;;;;;;4170318;28;20060;-62
2023/12/16 06:19:19;;;;;;;7.60;2.15;;;16.40;80.70;;;;;;4170041;28;20056;-63
2023/12/16 06:22:02;;;;;;;14.98;3.40;;;16.50;81.10;;;;;;4180833;28;20068;-64
2023/12/16 06:24:44;;;;;;;15.02;3.45;;;16.60;80.60;;;;;;4181069;28;19927;-63
2023/12/16 06:27:26;;;;;;;11.80;2.87;;;16.70;80.10;;;;;;4169707;28;20048;-62
2023/12/16 06:30:08;;;;;;;13.60;2.78;;;16.80;79.70;;;;;;4169629;28;20056;-63
2023/12/16 06:32:49;;;;;;;14.45;3.10;;;16.80;79.40;;;;;;4168858;28;20064;-63
2023/12/16 06:35:30;;;;;;;8.25;2.55;;;16.80;79.40;;;;;;4154980;28;20789;-62
2023/12/16 06:38:12;;;;;;;17.55;3.78;;;16.80;79.70;;;;;;4174745;28;20059;-62
2023/12/16 06:40:52;;;;;;;10.13;3.00;;;16.80;79.60;;;;;;4178390;28;20072;-61
2023/12/16 06:43:35;;;;;;;12.45;2.97;;;16.80;80.30;;;;;;4168759;28;20175;-62
2023/12/16 06:46:19;;;;;;;13.35;3.60;;;16.80;79.40;;;;;;4179310;28;20056;-62
2023/12/16 06:49:00;;;;;;;12.45;3.03;;;16.80;79.20;;;;;;4172920;28;20128;-61
2023/12/16 06:51:41;;;;;;;11.55;3.08;;;16.80;79.40;;;;;;4184941;28;20422;-61
2023/12/16 06:54:25;;;;;;;10.05;3.10;;;16.80;79.40;;;;;;4185398;28;20082;-63
2023/12/16 06:57:06;;;;;;;20.30;3.70;;;16.90;79.10;;;;;;4175622;28;20795;-61
2023/12/16 06:59:48;;;;;;;9.20;3.25;;;17.00;78.90;;;;;;4169175;28;20052;-60
2023/12/16 07:02:29;;;;;;;11.50;3.53;;;17.00;78.90;;;;;;4173450;28;20167;-59
2023/12/16 07:05:11;;;;;;;14.90;3.70;;;17.00;78.90;;;;;;4185436;28;20047;-61
2023/12/16 07:07:52;;;;;;;11.93;3.65;;;17.00;79.00;;;;;;4186170;28;20059;-63
2023/12/16 07:10:33;;;;;;;14.73;3.70;;;17.00;79.10;;;;;;4172870;28;20044;-61
2023/12/16 07:13:14;;;;;;;15.30;3.28;;;17.10;79.20;;;;;;4168702;28;20163;-61
2023/12/16 07:15:57;;;;;;;10.05;3.45;;;17.10;79.10;;;;;;4157798;28;20507;-61
2023/12/16 07:18:38;;;;;;;12.07;3.92;;;17.00;79.00;;;;;;4184763;28;20064;-60
2023/12/16 07:21:19;;;;;;;10.98;2.95;;;17.00;79.10;;;;;;4171807;28;20517;-62
2023/12/16 07:23:59;;;;;;;12.90;3.40;;;16.90;79.40;;;;;;4179361;28;20079;-62
2023/12/16 07:26:40;;;;;;;8.90;3.03;;;16.90;78.30;;;;;;4185519;28;20071;-62
2023/12/16 07:29:22;;;;;;;11.82;3.47;;;16.80;77.10;;;;;;4184000;28;20063;-63
2023/12/16 07:32:05;;;;;;;10.45;4.20;;;16.70;76.40;;;;;;4173677;28;20075;-64
2023/12/16 07:34:45;;;;;;;14.00;3.97;;;16.70;76.40;;;;;;4172338;28;20090;-63
2023/12/16 07:37:26;;;;;;;12.18;3.80;;;16.50;77.00;;;;;;4171499;28;20110;-68
2023/12/16 07:40:09;;;;;;;12.18;4.03;;;16.50;77.40;;;;;;4188199;28;20062;-63
2023/12/16 07:42:51;;;;;;;14.45;4.03;;;16.40;77.70;;;;;;4188115;28;20059;-63
2023/12/16 07:45:31;;;;;;;19.58;4.13;;;16.40;77.50;;;;;;4189553;28;20051;-63
2023/12/16 07:48:14;;;;;;;12.05;3.47;;;16.30;77.20;;;;;;4188659;28;20487;-59
2023/12/16 07:50:55;;;;;;;15.77;4.50;;;16.30;76.80;;;;;;4187479;28;20055;-58
2023/12/16 07:53:36;;;;;;;14.82;3.80;;;16.30;76.20;;;;;;4187909;28;20110;-58
2023/12/16 07:56:20;;;;;;;18.45;4.18;;;16.30;75.80;;;;;;4171316;28;20056;-59
2023/12/16 07:59:00;;;;;;;6.05;3.22;;;16.20;75.60;;;;;;4156972;28;20065;-59
2023/12/16 08:01:41;;;;;;;13.45;4.30;;;16.20;75.50;;;;;;4168765;28;20544;-63
2023/12/16 08:04:24;;;;;;;8.88;4.07;;;16.20;75.00;;;;;;4188327;28;20510;-64
2023/12/16 08:07:05;;;;;;;13.60;4.35;;;16.20;74.70;;;;;;4188614;28;20109;-63
2023/12/16 08:09:46;;;;;;;13.43;4.43;;;16.20;74.60;;;;;;4188090;28;20483;-63
2023/12/16 08:12:27;;;;;;;14.30;4.00;;;16.10;74.10;;;;;;4187063;28;20051;-63
2023/12/16 08:15:09;;;;;;;13.57;3.97;;;16.20;74.50;;;;;;4188722;28;20407;-59
2023/12/16 08:17:50;;;;;;;20.15;5.07;;;16.10;74.50;;;;;;4186538;28;20112;-59
2023/12/16 08:20:33;;;;;;;;;;;16.20;74.30;;;;;;4186361;28;20097;-59
2023/12/16 08:23:14;;;;;;;8.23;2.72;;;16.30;74.00;;;;;;4184403;28;20313;-64
2023/12/16 08:25:55;;;;;;;15.75;4.88;;;16.30;73.40;;;;;;4169849;28;20471;-65
2023/12/16 08:28:37;;;;;;;20.35;4.20;;;16.30;72.90;;;;;;4168262;28;20083;-63
2023/12/16 08:31:19;;;;;;;13.70;4.72;;;16.40;72.80;;;;;;4170781;28;20063;-63
2023/12/16 08:33:59;;;;;;;8.10;2.83;;;16.40;72.50;;;;;;4183043;28;20077;-63
2023/12/16 08:36:43;;;;;;;17.15;4.55;;;16.40;72.50;;;;;;4174506;28;20063;-63
2023/12/16 08:39:24;;;;;;;10.15;4.30;;;16.40;72.40;;;;;;4171157;28;20076;-58
2023/12/16 08:42:05;;;;;;;18.48;4.95;;;16.30;72.30;;;;;;4170634;28;20680;-59
2023/12/16 08:44:46;;;;;;;;;;;16.40;72.20;;;;;;4176480;28;20059;-59
2023/12/16 08:47:27;;;;;;;15.93;5.15;;;16.30;72.30;;;;;;4172310;28;19982;-58
2023/12/16 08:50:09;;;;;;;15.60;4.53;;;16.30;72.40;;;;;;4171016;28;20151;-59
2023/12/16 08:52:52;;;;;;;16.75;4.45;;;16.20;72.50;;;;;;4172583;28;20102;-60
2023/12/16 08:55:33;;;;;;;8.25;3.30;;;16.20;72.40;;;;;;4173336;28;20102;-65
2023/12/16 08:58:14;;;;;;;15.20;4.63;;;16.20;72.30;;;;;;4166560;28;20055;-63
2023/12/16 09:00:55;;;;;;;13.90;4.60;;;16.30;72.20;;;;;;4158707;28;20063;-63
2023/12/16 09:03:36;;;;;;;14.05;4.60;;;16.40;72.10;;;;;;4165456;28;20120;-64
2023/12/16 09:06:17;;;;;;;11.57;3.92;;;16.40;71.60;;;;;;4171373;28;20838;-64
2023/12/16 09:09:01;;;;;;;17.25;4.28;;;16.40;71.50;;;;;;4178729;28;20060;-63
2023/12/16 09:11:44;;;;;;;11.85;4.63;;;16.40;71.40;;;;;;4170570;28;20099;-63
2023/12/16 09:14:25;;;;;;;12.57;4.43;;;16.40;71.30;;;;;;4175821;28;20063;-59
2023/12/16 09:17:06;;;;;;;16.95;4.43;;;16.30;71.40;;;;;;4169356;28;20090;-58
2023/12/16 09:19:47;;;;;;;12.40;4.25;;;16.20;71.60;;;;;;4154990;28;20151;-62
2023/12/16 09:22:31;;;;;;;;;;;16.30;71.70;;;;;;4179286;28;20074;-63
2023/12/16 09:25:14;;;;;;;10.73;4.88;;;16.30;71.60;;;;;;4168499;28;19932;-65
2023/12/16 09:27:55;;;;;;;9.38;3.35;;;16.30;71.30;;;;;;4167051;28;20141;-59
2023/12/16 09:30:38;;;;;;;13.73;4.32;;;16.30;71.10;;;;;;4165136;28;20060;-59
2023/12/16 09:33:20;;;;;;;12.07;4.65;;;16.30;71.10;;;;;;4149125;28;20060;-60
2023/12/16 09:36:01;;;;;;;13.95;3.30;;;16.40;71.30;;;;;;4168757;28;20081;-59
2023/12/16 09:38:44;;;;;;;13.55;4.75;;;16.50;70.90;;;;;;4172917;28;20080;-64
2023/12/16 09:41:28;;;;;;;10.18;3.33;;;16.90;69.80;;;;;;4182067;28;20055;-59
2023/12/16 09:44:10;;;;;;;12.75;3.78;;;17.30;68.60;;;;;;4167223;28;20079;-64
2023/12/16 09:46:51;;;;;;;4.50;2.88;;;17.80;67.70;;;;;;4170409;28;20052;-63
2023/12/16 09:49:33;;;;;;;11.05;3.80;;;18.20;66.10;;;;;;4176027;28;20086;-62
2023/12/16 09:52:15;;;;;;;10.80;4.00;;;18.60;64.50;;;;;;4171500;28;20076;-66
2023/12/16 09:54:56;;;;;;;7.30;3.20;;;19.00;63.80;;;;;;4179594;28;20178;-51
2023/12/16 09:57:41;;;;;;;11.43;4.07;;;19.40;62.90;;;;;;4176799;28;20082;-58
2023/12/16 10:00:23;;;;;;;9.02;4.65;;;19.70;62.10;;;;;;4164305;28;20051;-58
2023/12/16 10:03:04;;;;;;;12.75;4.75;;;20.00;62.50;;;;;;4170554;28;20512;-58
2023/12/16 10:05:46;;;;;;;;;;;20.20;61.10;;;;;;4166721;28;20060;-59
2023/12/16 10:08:27;;;;;;;8.95;3.78;;;20.30;61.20;;;;;;4176391;28;19944;-59
2023/12/16 10:11:08;;;;;;;13.18;5.35;;;20.20;61.20;;;;;;4157081;28;20098;-58
2023/12/16 10:13:59;;;;;;;13.00;5.07;;;20.10;61.80;;;;;;4171003;28;20175;-63
2023/12/16 10:16:43;;;;;;;9.93;4.70;;;20.00;62.10;;;;;;4189280;28;20282;-62
2023/12/16 10:19:24;;;;;;;9.00;4.43;;;20.00;62.70;;;;;;4170771;28;20286;-66
2023/12/16 10:22:06;;;;;;;;;;;20.00;62.90;;;;;;4143108;28;20440;-60
2023/12/16 10:24:48;;;;;;;12.55;4.93;;;20.10;63.40;;;;;;4164007;28;20292;-65
2023/12/16 10:27:29;;;;;;;10.63;4.82;;;20.10;63.30;;;;;;4177056;28;20071;-64
2023/12/16 10:30:12;;;;;;;9.65;4.35;;;20.20;63.10;;;;;;4166231;28;20396;-64
2023/12/16 10:32:55;;;;;;;8.00;4.10;;;20.20;63.10;;;;;;4177236;28;20071;-71
2023/12/16 10:35:37;;;;;;;11.80;4.85;;;20.20;62.70;;;;;;4170848;28;20437;-71
2023/12/16 10:38:18;;;;;;;11.43;4.47;;;20.30;62.60;;;;;;4178569;28;20052;-70
2023/12/16 10:40:59;;;;;;;12.35;5.07;;;20.30;62.40;;;;;;4167571;28;20060;-70
2023/12/16 10:43:40;;;;;;;11.77;4.55;;;20.40;62.20;;;;;;4178006;28;20056;-70
2023/12/16 10:46:27;;;;;;;8.63;4.20;;;20.40;62.10;;;;;;4170140;28;20792;-65
2023/12/16 10:49:10;;;;;;;13.35;4.78;;;20.50;62.20;;;;;;4180609;28;20383;-65
2023/12/16 10:51:56;;;;;;;12.82;5.38;;;20.40;62.10;;;;;;4168963;28;20106;-71
2023/12/16 10:54:41;;;;;;;10.43;4.25;;;20.40;62.20;;;;;;4163136;28;20187;-70
2023/12/16 10:57:31;;;;;;;11.75;4.20;;;20.40;62.30;;;;;;4154682;28;20056;-70
2023/12/16 11:00:20;;;;;;;11.65;4.45;;;20.40;62.40;;;;;;4164016;28;20052;-65
2023/12/16 11:03:06;;;;;;;8.82;5.07;;;20.30;62.50;;;;;;4175001;28;20051;-61
2023/12/16 11:05:51;;;;;;;10.43;6.57;;;20.30;62.40;;;;;;4169559;28;20458;-64
2023/12/16 11:08:34;;;;;;;14.10;6.28;;;20.30;62.80;;;;;;4184346;28;20114;-63
2023/12/16 11:11:18;;;;;;;10.73;4.22;;;20.30;63.20;;;;;;4171064;28;20060;-62
2023/12/16 11:14:00;;;;;;;10.82;4.50;;;20.20;62.50;;;;;;4177949;28;20233;-69
2023/12/16 11:16:50;;;;;;;12.75;4.25;;;20.20;62.90;;;;;;4172019;28;20106;-69
2023/12/16 11:19:37;;;;;;;8.38;4.40;;;20.10;62.50;;;;;;4171677;28;20067;-69
2023/12/16 11:22:22;;;;;;;11.13;4.25;;;20.10;62.60;;;;;;4176027;28;20102;-70
2023/12/16 11:25:04;;;;;;;8.75;4.32;;;20.00;62.90;;;;;;4172075;28;20621;-68
2023/12/16 11:27:47;;;;;;;6.88;3.40;;;19.90;63.00;;;;;;4178302;28;20059;-67
2023/12/16 11:30:29;;;;;;;11.40;3.90;;;19.90;63.10;;;;;;4169359;28;20055;-67
2023/12/16 11:33:11;;;;;;;6.72;3.75;;;19.80;63.10;;;;;;4168599;28;20476;-61
2023/12/16 11:35:55;;;;;;;8.15;3.88;;;19.80;63.50;;;;;;4184076;28;20051;-67
2023/12/16 11:38:40;;;;;;;9.80;3.95;;;19.80;63.80;;;;;;4183173;28;20060;-68
2023/12/16 11:41:40;;;;;;;8.02;3.95;;;19.80;64.10;;;;;;4170576;28;20055;-68
2023/12/16 11:44:48;;;;;;;5.85;3.25;;;19.90;64.10;;;;;;4181103;28;20052;-68
2023/12/16 11:47:29;;;;;;;9.68;3.70;;;19.90;64.20;;;;;;4184708;28;20055;-67
2023/12/16 11:50:10;;;;;;;8.43;4.20;;;19.90;64.60;;;;;;4182680;28;20217;-68
2023/12/16 11:52:53;;;;;;;6.40;3.38;;;19.90;64.80;;;;;;4171486;28;20190;-68
2023/12/16 11:55:34;;;;;;;5.53;3.40;;;20.00;64.90;;;;;;4173700;28;20059;-69
2023/12/16 11:58:18;;;;;;;5.75;3.38;;;20.00;65.10;;;;;;4175937;28;20439;-68
2023/12/16 12:01:00;;;;;;;6.28;2.95;;;20.00;65.20;;;;;;4176291;28;20108;-63
2023/12/16 12:03:41;;;;;;;6.22;2.97;;;19.90;65.40;;;;;;4177641;28;20514;-63
2023/12/16 12:06:24;;;;;;;7.00;3.10;;;19.90;65.80;;;;;;4180244;28;20060;-63
2023/12/16 12:09:06;;;;;;;6.90;3.33;;;19.90;65.80;;;;;;4166963;28;20071;-63
2023/12/16 12:11:48;;;;;;;5.88;3.08;;;20.00;65.80;;;;;;4181080;28;20163;-63
2023/12/16 12:14:29;;;;;;;4.28;2.92;;;20.00;65.80;;;;;;4171614;28;20051;-63
2023/12/16 12:17:10;;;;;;;5.47;2.88;;;20.00;65.60;;;;;;4174405;28;20060;-63
2023/12/16 12:19:51;;;;;;;5.53;2.47;;;20.00;65.80;;;;;;4179536;28;20052;-63
2023/12/16 12:22:33;;;;;;;4.45;2.78;;;20.00;66.80;;;;;;4180086;28;20055;-69
2023/12/16 12:25:18;;;;;;;5.47;2.55;;;19.90;66.20;;;;;;4170033;28;20153;-68
2023/12/16 12:28:00;;;;;;;7.00;2.90;;;19.90;66.30;;;;;;4174341;28;20507;-67
2023/12/16 12:30:40;;;;;;;4.03;2.70;;;19.90;66.40;;;;;;4178664;28;20131;-67
2023/12/16 12:33:22;;;;;;;6.63;2.97;;;20.00;66.70;;;;;;4171592;28;20388;-67
2023/12/16 12:36:03;;;;;;;;;;;20.00;66.50;;;;;;4172968;28;20060;-68
2023/12/16 12:38:46;;;;;;;2.53;2.22;;;19.90;66.60;;;;;;4167726;28;19927;-68
2023/12/16 12:41:29;;;;;;;2.78;2.47;;;19.90;66.90;;;;;;4172536;28;20059;-68
2023/12/16 12:44:11;;;;;;;3.85;1.83;;;19.70;67.20;;;;;;4171259;28;20055;-67
2023/12/16 12:46:52;;;;;;;3.75;2.85;;;19.70;67.60;;;;;;4166136;28;20399;-68
2023/12/16 12:49:34;;;;;;;5.15;2.10;;;19.70;68.20;;;;;;4173641;28;20056;-63
2023/12/16 12:52:16;;;;;;;3.33;2.10;;;19.70;68.40;;;;;;4172853;28;20063;-68
2023/12/16 12:54:57;;;;;;;2.15;2.00;;;19.70;68.70;;;;;;4182099;28;20048;-70
2023/12/16 12:57:39;;;;;;;4.22;2.45;;;19.70;69.80;;;;;;4173386;28;20051;-68
2023/12/16 13:00:20;;;;;;;3.45;2.00;;;19.80;69.00;;;;;;4172671;28;20056;-61
2023/12/16 13:03:01;;;;;;;;;;;19.80;68.80;;;;;;4168208;28;20052;-60
2023/12/16 13:05:43;;;;;;;2.92;2.05;;;19.80;69.00;;;;;;4167330;28;19932;-61
2023/12/16 13:08:24;;;;;;;2.92;2.20;;;19.90;69.10;;;;;;4167135;28;20056;-62
2023/12/16 13:11:06;;;;;;;2.63;1.90;;;19.90;69.00;;;;;;4169267;28;20055;-63
2023/12/16 13:13:49;;;;;;;2.47;2.15;;;19.90;68.90;;;;;;4171285;28;20582;-59
2023/12/16 13:16:30;;;;;;;1.80;1.70;;;19.90;69.10;;;;;;4172920;28;20051;-59
2023/12/16 13:19:11;;;;;;;2.35;2.15;;;19.90;69.20;;;;;;4172263;28;20060;-58
2023/12/16 13:21:52;;;;;;;2.92;2.25;;;19.90;68.80;;;;;;4174501;28;20051;-60
2023/12/16 13:24:33;;;;;;;2.78;2.45;;;19.90;69.20;;;;;;4172852;28;20839;-57
2023/12/16 13:27:14;;;;;;;3.70;2.28;;;19.90;70.60;;;;;;4173369;28;20118;-57
2023/12/16 13:29:57;;;;;;;;;;;19.90;69.80;;;;;;4170773;28;20066;-59
2023/12/16 13:32:38;;;;;;;4.00;2.63;;;19.90;69.90;;;;;;4175955;28;19932;-58
2023/12/16 13:35:19;;;;;;;4.65;2.88;;;19.80;70.00;;;;;;4184705;28;20407;-57
2023/12/16 13:38:02;;;;;;;2.17;2.03;;;19.80;70.00;;;;;;4172582;28;20051;-57
2023/12/16 13:40:44;;;;;;;3.13;2.53;;;19.80;70.10;;;;;;4183769;28;20056;-57
2023/12/16 13:43:29;;;;;;;3.42;2.40;;;19.80;70.10;;;;;;4174633;28;20052;-58
2023/12/16 13:46:12;;;;;;;3.60;2.72;;;19.70;70.40;;;;;;4183492;28;20086;-59
2023/12/16 13:48:53;;;;;;;2.47;2.28;;;19.70;70.60;;;;;;4182147;28;20080;-59
2023/12/16 13:51:34;;;;;;;3.88;2.72;;;19.70;70.70;;;;;;4169484;28;20055;-59
2023/12/16 13:54:15;;;;;;;3.38;2.60;;;19.80;70.50;;;;;;4182224;28;20495;-59
2023/12/16 13:56:56;;;;;;;2.50;2.28;;;19.80;70.80;;;;;;4177698;28;20825;-59
2023/12/16 13:59:38;;;;;;;2.70;2.40;;;19.80;70.80;;;;;;4182690;28;20060;-58
2023/12/16 14:02:20;;;;;;;2.83;2.45;;;19.80;70.90;;;;;;4181265;28;20067;-59
2023/12/16 14:05:01;;;;;;;2.50;2.40;;;19.80;70.60;;;;;;4184396;28;20118;-57